createdAt,value
2022-10-02T00:01:57.946Z,13.63
2022-10-02T00:04:32.925Z,10.35
2022-10-02T00:07:01.847Z,17.23
2022-10-02T00:09:30.259Z,19.58
2022-10-02T00:11:58.042Z,20.98
2022-10-02T00:14:25.181Z,22.80
2022-10-02T00:16:53.810Z,16.45
2022-10-02T00:19:20.117Z,13.63
2022-10-02T00:21:54.569Z,12.52
2022-10-02T00:24:23.684Z,17.25
2022-10-02T00:27:03.988Z,11.85
2022-10-02T00:29:41.108Z,22.33
2022-10-02T00:32:15.233Z,15.90
2022-10-02T00:34:47.271Z,20.85
2022-10-02T00:37:20.798Z,20.00
2022-10-02T00:39:52.980Z,18.08
2022-10-02T00:42:24.970Z,15.88
2022-10-02T00:44:55.615Z,16.88
2022-10-02T00:47:47.910Z,12.97
2022-10-02T00:50:18.027Z,16.77
2022-10-02T00:52:47.209Z,16.58
2022-10-02T00:55:26.651Z,18.35
2022-10-02T00:57:55.849Z,18.10
2022-10-02T01:00:23.102Z,18.00
2022-10-02T01:03:01.618Z,12.40
2022-10-02T01:05:27.928Z,20.00
2022-10-02T01:07:55.260Z,16.75
2022-10-02T01:10:23.100Z,8.85
2022-10-02T01:12:50.002Z,19.02
2022-10-02T01:15:18.383Z,17.08
2022-10-02T01:17:45.688Z,17.65
2022-10-02T01:20:17.771Z,15.25
2022-10-02T01:22:47.007Z,16.80
2022-10-02T01:25:13.396Z,15.30
2022-10-02T01:27:39.726Z,20.70
2022-10-02T01:30:07.421Z,17.08
2022-10-02T01:32:35.094Z,14.80
2022-10-02T01:35:01.820Z,16.60
2022-10-02T01:37:30.027Z,18.08
2022-10-02T01:39:59.079Z,16.17
2022-10-02T01:42:25.448Z,16.23
2022-10-02T01:44:51.733Z,16.63
2022-10-02T01:47:29.219Z,19.67
2022-10-02T01:50:12.426Z,20.33
2022-10-02T01:52:41.647Z,20.02
2022-10-02T01:55:22.200Z,17.00
2022-10-02T01:57:59.606Z,21.13
2022-10-02T02:00:26.903Z,19.13
2022-10-02T02:02:59.791Z,25.85
2022-10-02T02:05:26.740Z,20.38
2022-10-02T02:07:58.111Z,16.92
2022-10-02T02:10:39.455Z,20.40
2022-10-02T02:13:11.066Z,18.85
2022-10-02T02:15:43.311Z,18.98
2022-10-02T02:18:12.768Z,19.13
2022-10-02T02:20:44.855Z,16.38
2022-10-02T02:23:14.109Z,19.95
2022-10-02T02:25:43.173Z,22.67
2022-10-02T02:28:12.326Z,15.65
2022-10-02T02:30:40.655Z,18.50
2022-10-02T02:33:17.064Z,15.35
2022-10-02T02:35:48.606Z,18.17
2022-10-02T02:40:44.367Z,20.08
2022-10-02T02:43:22.119Z,28.08
2022-10-02T02:45:54.536Z,19.48
2022-10-02T02:48:22.759Z,13.60
2022-10-02T02:50:55.164Z,19.83
2022-10-02T02:53:25.741Z,17.15
2022-10-02T02:55:59.302Z,19.05
2022-10-02T02:58:28.497Z,18.88
2022-10-02T03:00:55.079Z,22.17
2022-10-02T03:03:21.746Z,15.50
2022-10-02T03:05:49.739Z,18.05
2022-10-02T03:08:24.241Z,19.65
2022-10-02T03:11:09.972Z,19.35
2022-10-02T03:13:55.017Z,18.40
2022-10-02T03:16:27.971Z,21.15
2022-10-02T03:18:59.907Z,21.38
2022-10-02T03:21:34.282Z,16.45
2022-10-02T03:24:03.216Z,17.77
2022-10-02T03:26:45.296Z,19.50
2022-10-02T03:29:18.775Z,20.23
2022-10-02T03:31:45.107Z,21.15
2022-10-02T03:34:11.853Z,23.58
2022-10-02T03:36:38.490Z,16.33
2022-10-02T03:39:25.171Z,20.00
2022-10-02T03:41:51.615Z,15.20
2022-10-02T03:44:17.846Z,21.77
2022-10-02T03:46:44.102Z,21.50
2022-10-02T03:49:10.345Z,15.50
2022-10-02T03:51:37.024Z,18.65
2022-10-02T03:54:06.588Z,16.35
2022-10-02T03:56:36.665Z,22.80
2022-10-02T03:59:04.799Z,20.13
2022-10-02T04:01:36.955Z,18.45
2022-10-02T04:04:09.860Z,23.08
2022-10-02T04:06:42.014Z,19.23
2022-10-02T04:09:11.271Z,19.13
2022-10-02T04:11:43.796Z,13.57
2022-10-02T04:14:28.934Z,22.75
2022-10-02T04:16:55.134Z,19.33
2022-10-02T04:19:23.967Z,12.50
2022-10-02T04:21:59.141Z,16.17
2022-10-02T04:24:31.801Z,17.60
2022-10-02T04:27:03.255Z,20.98
2022-10-02T04:29:33.632Z,17.40
2022-10-02T04:32:04.587Z,13.93
2022-10-02T04:34:30.787Z,25.35
2022-10-02T04:37:13.084Z,17.98
2022-10-02T04:39:46.380Z,17.15
2022-10-02T04:42:17.876Z,21.30
2022-10-02T04:45:09.763Z,10.27
2022-10-02T04:50:10.597Z,16.80
2022-10-02T04:52:54.884Z,17.05
2022-10-02T04:55:35.593Z,15.60
2022-10-02T04:58:16.394Z,16.25
2022-10-02T05:00:47.420Z,17.10
2022-10-02T05:03:22.747Z,16.05
2022-10-02T05:05:51.726Z,19.40
2022-10-02T05:08:20.688Z,16.70
2022-10-02T05:11:08.769Z,13.38
2022-10-02T05:13:43.147Z,18.20
2022-10-02T05:16:19.513Z,16.85
2022-10-02T05:18:56.781Z,13.18
2022-10-02T05:21:33.067Z,14.45
2022-10-02T05:24:02.285Z,17.98
2022-10-02T05:26:41.445Z,16.63
2022-10-02T05:29:10.765Z,13.18
2022-10-02T05:31:42.459Z,12.02
2022-10-02T05:34:20.931Z,15.43
2022-10-02T05:36:52.720Z,12.43
2022-10-02T05:39:22.556Z,15.80
2022-10-02T05:41:51.743Z,16.35
2022-10-02T05:44:20.906Z,12.98
2022-10-02T05:47:01.464Z,13.00
2022-10-02T05:49:30.781Z,14.55
2022-10-02T05:52:02.337Z,11.18
2022-10-02T05:56:57.979Z,12.57
2022-10-02T05:59:43.120Z,18.42
2022-10-02T06:02:15.230Z,10.13
2022-10-02T06:04:44.090Z,11.90
2022-10-02T06:07:12.790Z,13.27
2022-10-02T06:09:49.532Z,9.32
2022-10-02T06:12:30.420Z,11.48
2022-10-02T06:15:05.168Z,11.87
2022-10-02T06:17:40.942Z,8.05
2022-10-02T06:20:16.481Z,7.68
2022-10-02T06:22:55.424Z,9.65
2022-10-02T06:25:30.848Z,7.38
2022-10-02T06:27:59.648Z,8.68
2022-10-02T06:30:26.475Z,7.05
2022-10-02T06:33:01.661Z,9.27
2022-10-02T06:35:46.491Z,9.35
2022-10-02T06:38:16.813Z,7.07
2022-10-02T06:40:42.990Z,8.25
2022-10-02T06:43:24.568Z,7.22
2022-10-02T06:46:02.037Z,9.75
2022-10-02T06:48:53.433Z,6.43
2022-10-02T06:51:38.437Z,7.03
2022-10-02T06:54:23.376Z,7.18
2022-10-02T06:56:55.563Z,9.65
2022-10-02T06:59:34.683Z,10.65
2022-10-02T07:02:17.735Z,3.40
2022-10-02T07:05:02.778Z,8.13
2022-10-02T07:07:28.963Z,7.28
2022-10-02T07:09:55.220Z,5.47
2022-10-02T07:12:21.412Z,5.95
2022-10-02T07:15:10.973Z,6.63
2022-10-02T07:17:55.713Z,4.70
2022-10-02T07:20:21.946Z,4.20
2022-10-02T07:23:06.800Z,3.75
2022-10-02T07:25:58.367Z,5.72
2022-10-02T07:28:43.186Z,7.00
2022-10-02T07:31:29.512Z,6.13
2022-10-02T07:34:06.421Z,4.32
2022-10-02T07:36:38.987Z,4.45
2022-10-02T07:39:25.494Z,3.78
2022-10-02T07:42:04.349Z,5.43
2022-10-02T07:44:42.000Z,6.03
2022-10-02T07:47:30.827Z,4.72
2022-10-02T07:50:06.698Z,3.97
2022-10-02T07:52:51.826Z,5.22
2022-10-02T07:55:24.916Z,6.60
2022-10-02T07:58:04.167Z,5.30
2022-10-02T08:00:36.344Z,3.75
2022-10-02T08:03:06.079Z,4.53
2022-10-02T08:05:40.475Z,3.95
2022-10-02T08:08:15.758Z,4.65
2022-10-02T08:10:44.232Z,8.05
2022-10-02T08:13:20.417Z,4.38
2022-10-02T08:15:48.220Z,6.03
2022-10-02T08:18:40.286Z,4.35
2022-10-02T08:21:15.418Z,3.33
2022-10-02T08:23:45.086Z,3.13
2022-10-02T08:26:21.245Z,5.95
2022-10-02T08:28:57.781Z,5.28
2022-10-02T08:31:25.000Z,6.35
2022-10-02T08:33:51.853Z,7.13
2022-10-02T08:36:24.268Z,5.35
2022-10-02T08:38:58.572Z,4.05
2022-10-02T08:41:24.771Z,4.90
2022-10-02T08:44:16.014Z,5.13
2022-10-02T08:46:58.582Z,3.95
2022-10-02T08:49:43.856Z,4.90
2022-10-02T08:52:28.819Z,5.53
2022-10-02T08:55:24.410Z,4.78
2022-10-02T08:57:50.593Z,5.25
2022-10-02T09:00:19.886Z,4.25
2022-10-02T09:03:04.857Z,4.68
2022-10-02T09:05:49.717Z,5.13
2022-10-02T09:08:19.472Z,7.88
2022-10-02T09:10:51.722Z,6.05
2022-10-02T09:13:38.103Z,7.53
2022-10-02T09:16:30.464Z,5.90
2022-10-02T09:19:00.968Z,5.75
2022-10-02T09:21:44.860Z,4.97
2022-10-02T09:24:27.182Z,7.78
2022-10-02T09:26:56.362Z,4.10
2022-10-02T09:29:22.526Z,3.38
2022-10-02T09:32:14.311Z,5.68
2022-10-02T09:35:01.881Z,6.10
2022-10-02T09:37:48.558Z,4.07
2022-10-02T09:40:29.363Z,5.35
2022-10-02T09:43:18.521Z,4.63
2022-10-02T09:46:03.633Z,4.50
2022-10-02T09:48:48.742Z,7.55
2022-10-02T09:51:27.339Z,6.65
2022-10-02T09:54:02.538Z,3.72
2022-10-02T09:56:31.477Z,6.30
2022-10-02T09:59:07.100Z,6.10
2022-10-02T10:01:36.365Z,5.32
2022-10-02T10:04:08.535Z,5.60
2022-10-02T10:06:53.447Z,6.57
2022-10-02T10:09:34.943Z,5.10
2022-10-02T10:12:01.119Z,8.60
2022-10-02T10:14:29.164Z,6.20
2022-10-02T10:17:05.615Z,4.47
2022-10-02T10:19:59.911Z,6.43
2022-10-02T10:22:41.486Z,3.85
2022-10-02T10:25:21.164Z,4.43
2022-10-02T10:28:00.134Z,5.82
2022-10-02T10:30:35.768Z,5.05
2022-10-02T10:33:20.664Z,7.57
2022-10-02T10:36:05.784Z,6.53
2022-10-02T10:38:38.277Z,4.80
2022-10-02T10:41:16.623Z,5.97
2022-10-02T10:43:42.809Z,5.65
2022-10-02T10:46:27.585Z,5.40
2022-10-02T10:49:23.464Z,7.25
2022-10-02T10:51:49.717Z,6.13
2022-10-02T10:54:48.537Z,7.63
2022-10-02T10:57:28.494Z,5.20
2022-10-02T10:59:57.742Z,4.60
2022-10-02T11:02:54.427Z,3.83
2022-10-02T11:05:35.831Z,4.93
2022-10-02T11:08:24.772Z,6.80
2022-10-02T11:10:50.966Z,4.15
2022-10-02T11:13:55.830Z,3.90
2022-10-02T11:16:22.273Z,4.22
2022-10-02T11:18:59.902Z,7.22
2022-10-02T11:21:28.954Z,6.60
2022-10-02T11:24:11.212Z,4.72
2022-10-02T11:26:37.512Z,4.20
2022-10-02T11:29:19.241Z,3.78
2022-10-02T11:34:33.463Z,6.03
2022-10-02T11:37:13.257Z,9.35
2022-10-02T11:39:45.609Z,8.52
2022-10-02T11:42:30.336Z,8.68
2022-10-02T11:45:03.891Z,9.55
2022-10-02T11:47:30.072Z,7.90
2022-10-02T11:50:19.047Z,4.97
2022-10-02T11:52:51.312Z,5.53
2022-10-02T11:55:18.228Z,7.90
2022-10-02T11:57:52.679Z,5.75
2022-10-02T12:00:38.512Z,6.97
2022-10-02T12:03:12.464Z,6.88
2022-10-02T12:05:48.395Z,5.97
2022-10-02T12:08:34.331Z,8.70
2022-10-02T12:11:03.313Z,6.80
2022-10-02T12:13:35.565Z,6.72
2022-10-02T12:16:07.710Z,7.30
2022-10-02T12:18:50.755Z,4.10
2022-10-02T12:21:35.711Z,7.40
2022-10-02T12:24:25.931Z,6.85
2022-10-02T12:27:04.098Z,7.40
2022-10-02T12:29:33.359Z,8.70
2022-10-02T12:32:11.211Z,6.70
2022-10-02T12:34:43.808Z,9.05
2022-10-02T12:37:25.334Z,4.90
2022-10-02T12:40:06.931Z,6.30
2022-10-02T12:45:17.550Z,5.32
2022-10-02T12:47:55.991Z,7.20
2022-10-02T12:50:28.000Z,8.25
2022-10-02T12:53:08.210Z,6.20
2022-10-02T12:55:53.822Z,5.85
2022-10-02T12:58:22.623Z,6.53
2022-10-02T13:00:48.905Z,6.53
2022-10-02T13:03:33.724Z,8.07
2022-10-02T13:06:10.687Z,7.80
2022-10-02T13:08:41.425Z,7.22
2022-10-02T13:11:07.586Z,8.50
2022-10-02T13:13:35.499Z,6.72
2022-10-02T13:16:02.487Z,8.27
2022-10-02T13:18:33.693Z,10.48
2022-10-02T13:21:18.742Z,7.35
2022-10-02T13:23:50.011Z,7.28
2022-10-02T13:26:16.488Z,6.40
2022-10-02T13:28:47.323Z,8.07
2022-10-02T13:31:22.151Z,6.10
2022-10-02T13:33:51.609Z,5.47
2022-10-02T13:36:40.862Z,5.82
2022-10-02T13:39:07.035Z,10.52
2022-10-02T13:41:45.577Z,9.55
2022-10-02T13:44:14.592Z,7.95
2022-10-02T13:46:56.166Z,9.45
2022-10-02T13:49:31.402Z,7.10
2022-10-02T13:52:02.164Z,7.03
2022-10-02T13:54:31.406Z,10.80
2022-10-02T13:57:16.569Z,6.60
2022-10-02T13:59:48.916Z,6.85
2022-10-02T14:02:24.103Z,7.82
2022-10-02T14:04:56.079Z,6.00
2022-10-02T14:07:45.726Z,6.97
2022-10-02T14:10:11.912Z,6.07
2022-10-02T14:12:38.102Z,8.02
2022-10-02T14:15:07.288Z,9.10
2022-10-02T14:17:44.653Z,6.82
2022-10-02T14:20:29.965Z,5.15
2022-10-02T14:23:05.488Z,8.60
2022-10-02T14:25:48.475Z,10.77
2022-10-02T14:28:26.803Z,10.77
2022-10-02T14:30:54.986Z,11.00
2022-10-02T14:33:40.110Z,11.18
2022-10-02T14:36:12.598Z,7.10
2022-10-02T14:38:41.903Z,6.53
2022-10-02T14:41:13.949Z,10.65
2022-10-02T14:43:40.312Z,9.18
2022-10-02T14:46:19.022Z,8.48
2022-10-02T14:49:08.587Z,8.45
2022-10-02T14:51:51.595Z,5.55
2022-10-02T14:54:17.768Z,6.07
2022-10-02T14:56:51.944Z,5.05
2022-10-02T14:59:18.108Z,8.68
2022-10-02T15:01:53.935Z,7.38
2022-10-02T15:04:28.090Z,8.65
2022-10-02T15:07:10.444Z,4.88
2022-10-02T15:09:49.108Z,7.20
2022-10-02T15:12:18.231Z,6.90
2022-10-02T15:14:52.879Z,8.50
2022-10-02T15:17:41.031Z,12.68
2022-10-02T15:20:13.249Z,9.80
2022-10-02T15:22:45.288Z,11.20
2022-10-02T15:25:38.020Z,9.00
2022-10-02T15:28:35.015Z,9.90
2022-10-02T15:31:04.825Z,6.97
2022-10-02T15:33:34.047Z,8.55
2022-10-02T15:36:11.086Z,6.88
2022-10-02T15:38:49.220Z,7.57
2022-10-02T15:41:18.507Z,6.28
2022-10-02T15:44:05.117Z,9.25
2022-10-02T15:46:49.660Z,8.57
2022-10-02T15:49:26.019Z,6.38
2022-10-02T15:52:10.709Z,6.13
2022-10-02T15:54:43.596Z,6.07
2022-10-02T15:57:21.603Z,7.07
2022-10-02T16:00:06.545Z,6.70
2022-10-02T16:02:35.787Z,7.05
2022-10-02T16:05:20.981Z,7.03
2022-10-02T16:07:56.480Z,8.10
2022-10-02T16:10:22.680Z,5.47
2022-10-02T16:12:59.657Z,7.88
2022-10-02T16:15:28.883Z,7.18
2022-10-02T16:18:01.170Z,14.02
2022-10-02T16:20:36.488Z,5.82
2022-10-02T16:23:12.199Z,10.98
2022-10-02T16:25:38.364Z,7.57
2022-10-02T16:28:16.415Z,5.15
2022-10-02T16:30:48.691Z,7.20
2022-10-02T16:33:17.719Z,9.45
2022-10-02T16:35:53.281Z,7.22
2022-10-02T16:38:38.132Z,9.48
2022-10-02T16:41:17.703Z,10.63
2022-10-02T16:44:09.759Z,8.73
2022-10-02T16:46:44.112Z,7.43
2022-10-02T16:49:19.460Z,9.82
2022-10-02T16:52:12.067Z,9.55
2022-10-02T16:54:47.304Z,6.30
2022-10-02T16:57:27.183Z,8.27
2022-10-02T17:00:08.490Z,10.35
2022-10-02T17:02:37.838Z,6.72
2022-10-02T17:05:20.060Z,9.55
2022-10-02T17:07:53.020Z,8.98
2022-10-02T17:10:32.754Z,12.20
2022-10-02T17:13:06.211Z,7.95
2022-10-02T17:15:38.553Z,11.00
2022-10-02T17:18:13.889Z,6.70
2022-10-02T17:20:57.991Z,11.38
2022-10-02T17:23:36.974Z,8.77
2022-10-02T17:26:10.909Z,11.55
2022-10-02T17:28:37.175Z,10.55
2022-10-02T17:31:04.182Z,12.07
2022-10-02T17:33:40.351Z,9.63
2022-10-02T17:36:06.559Z,9.27
2022-10-02T17:38:45.155Z,11.30
2022-10-02T17:41:20.251Z,12.05
2022-10-02T17:43:58.773Z,9.77
2022-10-02T17:46:41.923Z,9.68
2022-10-02T17:49:20.537Z,11.02
2022-10-02T17:52:19.103Z,11.00
2022-10-02T17:55:22.324Z,9.82
2022-10-02T17:57:58.373Z,13.68
2022-10-02T18:00:26.134Z,9.38
2022-10-02T18:02:52.304Z,10.25
2022-10-02T18:05:27.487Z,12.98
2022-10-02T18:07:53.724Z,9.90
2022-10-02T18:10:28.576Z,12.27
2022-10-02T18:12:55.343Z,9.15
2022-10-02T18:15:25.916Z,11.02
2022-10-02T18:17:53.013Z,15.90
2022-10-02T18:20:25.362Z,9.77
2022-10-02T18:23:02.124Z,13.55
2022-10-02T18:25:29.694Z,11.70
2022-10-02T18:28:11.429Z,16.88
2022-10-02T18:33:23.392Z,13.45
2022-10-02T18:36:12.641Z,13.90
2022-10-02T18:38:53.167Z,12.38
2022-10-02T18:41:41.831Z,11.85
2022-10-02T18:44:28.518Z,7.53
2022-10-02T18:46:59.150Z,14.10
2022-10-02T18:49:35.663Z,13.63
2022-10-02T18:52:22.145Z,11.02
2022-10-02T18:55:07.413Z,17.50
2022-10-02T18:57:42.503Z,13.60
2022-10-02T19:00:18.252Z,11.52
2022-10-02T19:02:56.419Z,12.40
2022-10-02T19:05:25.659Z,13.75
2022-10-02T19:08:04.231Z,11.20
2022-10-02T19:10:30.415Z,13.40
2022-10-02T19:13:03.004Z,9.63
2022-10-02T19:15:30.769Z,12.18
2022-10-02T19:18:01.765Z,9.55
2022-10-02T19:20:34.578Z,12.02
2022-10-02T19:23:01.075Z,11.93
2022-10-02T19:25:28.476Z,9.68
2022-10-02T19:27:55.240Z,9.38
2022-10-02T19:30:27.468Z,10.02
2022-10-02T19:32:56.160Z,13.45
2022-10-02T19:35:30.603Z,10.32
2022-10-02T19:38:07.479Z,9.82
2022-10-02T19:40:35.123Z,8.35
2022-10-02T19:43:19.063Z,8.25
2022-10-02T19:45:48.808Z,8.88
2022-10-02T19:48:17.629Z,9.27
2022-10-02T19:50:46.006Z,9.65
2022-10-02T19:53:25.726Z,6.85
2022-10-02T19:56:12.839Z,9.70
2022-10-02T19:58:48.544Z,8.65
2022-10-02T20:01:24.576Z,8.77
2022-10-02T20:03:54.942Z,9.68
2022-10-02T20:06:22.375Z,7.28
2022-10-02T20:08:51.232Z,13.05
2022-10-02T20:11:19.538Z,6.00
2022-10-02T20:13:49.163Z,9.20
2022-10-02T20:16:39.557Z,11.60
2022-10-02T20:19:07.542Z,11.30
2022-10-02T20:21:41.777Z,8.07
2022-10-02T20:24:14.342Z,10.38
2022-10-02T20:26:41.803Z,13.25
2022-10-02T20:29:14.169Z,7.80
2022-10-02T20:31:43.384Z,8.57
2022-10-02T20:34:16.423Z,10.88
2022-10-02T20:36:49.896Z,10.43
2022-10-02T20:39:17.470Z,9.23
2022-10-02T20:41:50.084Z,6.82
2022-10-02T20:44:16.400Z,9.93
2022-10-02T20:47:05.335Z,9.45
2022-10-02T20:49:47.124Z,8.70
2022-10-02T20:52:16.400Z,13.25
2022-10-02T20:54:58.600Z,9.25
2022-10-02T20:58:00.167Z,7.50
2022-10-02T21:03:05.642Z,8.93
2022-10-02T21:05:38.869Z,6.57
2022-10-02T21:08:16.958Z,9.05
2022-10-02T21:10:50.244Z,10.02
2022-10-02T21:13:28.612Z,10.38
2022-10-02T21:16:13.989Z,12.50
2022-10-02T21:18:51.948Z,10.10
2022-10-02T21:21:38.492Z,8.88
2022-10-02T21:24:28.079Z,8.20
2022-10-02T21:27:20.280Z,12.52
2022-10-02T21:29:53.830Z,10.07
2022-10-02T21:32:30.688Z,14.02
2022-10-02T21:35:14.164Z,12.05
2022-10-02T21:37:53.472Z,8.65
2022-10-02T21:40:33.260Z,9.80
2022-10-02T21:43:09.858Z,10.50
2022-10-02T21:45:53.109Z,9.02
2022-10-02T21:48:25.288Z,8.35
2022-10-02T21:51:10.422Z,9.05
2022-10-02T21:53:49.760Z,12.82
2022-10-02T21:56:52.281Z,13.70
2022-10-02T21:59:19.400Z,10.30
2022-10-02T22:02:08.691Z,10.27
2022-10-02T22:04:44.705Z,9.40
2022-10-02T22:07:22.771Z,8.73
2022-10-02T22:10:02.486Z,11.88
2022-10-02T22:12:31.559Z,9.55
2022-10-02T22:14:58.143Z,7.00
2022-10-02T22:17:25.059Z,11.75
2022-10-02T22:20:00.327Z,10.18
2022-10-02T22:22:26.532Z,9.48
2022-10-02T22:25:11.111Z,11.07
2022-10-02T22:27:56.363Z,14.68
2022-10-02T22:30:26.463Z,8.88
2022-10-02T22:33:11.518Z,7.72
2022-10-02T22:35:40.845Z,9.95
2022-10-02T22:38:18.964Z,11.57
2022-10-02T22:40:45.242Z,7.63
2022-10-02T22:43:16.547Z,7.63
2022-10-02T22:45:50.350Z,8.75
2022-10-02T22:48:35.765Z,9.88
2022-10-02T22:51:11.951Z,7.22
2022-10-02T22:53:45.175Z,9.65
2022-10-02T22:56:23.884Z,11.70
2022-10-02T22:58:56.439Z,9.57
2022-10-02T23:01:27.410Z,11.60
2022-10-02T23:03:53.590Z,11.25
2022-10-02T23:06:41.264Z,12.63
2022-10-02T23:09:07.444Z,11.82
2022-10-02T23:11:40.154Z,10.40
2022-10-02T23:14:30.647Z,11.00
2022-10-02T23:17:10.565Z,10.43
2022-10-02T23:19:46.814Z,10.40
2022-10-02T23:22:25.359Z,13.38
2022-10-02T23:25:13.099Z,14.75
2022-10-02T23:27:39.396Z,13.90
2022-10-02T23:30:09.437Z,11.13
2022-10-02T23:32:50.073Z,10.35
2022-10-02T23:35:16.300Z,14.80
2022-10-02T23:37:45.541Z,10.25
2022-10-02T23:40:14.631Z,9.73
2022-10-02T23:42:43.934Z,13.40
2022-10-02T23:45:28.876Z,9.75
2022-10-02T23:48:00.331Z,8.00
2022-10-02T23:50:45.097Z,12.15
2022-10-02T23:53:34.402Z,11.80
2022-10-02T23:56:12.151Z,9.13
2022-10-02T23:58:41.512Z,12.45
